GAP2983 RPLL-RPVA
Flight info
| Callsign | GAP2983 |
|---|---|
| Flight time | 0h 53m |
| Altitude | 35000 |
| Route | IPATA2R IPATA B462 ARREX ARREX2R |
| Aircraft | A321/M-SDE3FGHIRWY/LB1 |
Departure
| Time | 2026-05-08 05:07 |
|---|---|
| Airport | Ninoy Aquino International Airport (RPLL) |
Arrival
| Time | 2026-05-08 06:00 |
|---|---|
| Airport | Daniel Z. Romualdez Airport (RPVA) |
| Time | Latitude | Longitude | Altitude | Speed | Heading |
|---|---|---|---|---|---|
| 2026-05-08 04:46 | 14.51053 | 121.01406 | 82 ft | 0 kts | 231° |
| 2026-05-08 04:51 | 14.51055 | 121.01408 | 82 ft | 2 kts | 231° |
| 2026-05-08 04:51 | 14.51064 | 121.01421 | 82 ft | 1 kts | 231° |
| 2026-05-08 04:51 | 14.51070 | 121.01428 | 82 ft | 2 kts | 225° |
| 2026-05-08 04:51 | 14.51083 | 121.01437 | 82 ft | 2 kts | 198° |
| 2026-05-08 04:52 | 14.51098 | 121.01439 | 82 ft | 2 kts | 175° |
| 2026-05-08 04:52 | 14.51112 | 121.01435 | 82 ft | 2 kts | 153° |
| 2026-05-08 04:52 | 14.51122 | 121.01429 | 82 ft | 0 kts | 137° |
| 2026-05-08 04:52 | 14.51127 | 121.01424 | 82 ft | 0 kts | 134° |
| 2026-05-08 04:54 | 14.51126 | 121.01424 | 82 ft | 0 kts | 134° |
| 2026-05-08 04:54 | 14.51122 | 121.01428 | 82 ft | 1 kts | 134° |
| 2026-05-08 04:55 | 14.51112 | 121.01439 | 82 ft | 2 kts | 135° |
| 2026-05-08 04:55 | 14.51097 | 121.01454 | 82 ft | 3 kts | 135° |
| 2026-05-08 04:55 | 14.51076 | 121.01475 | 82 ft | 4 kts | 134° |
| 2026-05-08 04:55 | 14.51051 | 121.01502 | 82 ft | 5 kts | 134° |
| 2026-05-08 04:56 | 14.51020 | 121.01534 | 82 ft | 6 kts | 134° |
| 2026-05-08 04:56 | 14.50985 | 121.01571 | 82 ft | 7 kts | 135° |
| 2026-05-08 04:56 | 14.50945 | 121.01612 | 82 ft | 8 kts | 135° |
| 2026-05-08 04:56 | 14.50907 | 121.01651 | 82 ft | 6 kts | 135° |
| 2026-05-08 04:57 | 14.50878 | 121.01667 | 82 ft | 4 kts | 182° |
| 2026-05-08 04:57 | 14.50851 | 121.01644 | 82 ft | 5 kts | 235° |
| 2026-05-08 04:57 | 14.50828 | 121.01605 | 82 ft | 7 kts | 239° |
| 2026-05-08 04:57 | 14.50811 | 121.01574 | 82 ft | 7 kts | 240° |
| 2026-05-08 04:58 | 14.50723 | 121.01417 | 82 ft | 10 kts | 240° |
| 2026-05-08 04:59 | 14.50619 | 121.01228 | 82 ft | 12 kts | 240° |
| 2026-05-08 04:59 | 14.50574 | 121.01148 | 82 ft | 13 kts | 240° |
| 2026-05-08 04:59 | 14.50528 | 121.01064 | 82 ft | 13 kts | 240° |
| 2026-05-08 04:59 | 14.50480 | 121.00978 | 82 ft | 14 kts | 240° |
| 2026-05-08 05:00 | 14.50430 | 121.00889 | 82 ft | 14 kts | 240° |
| 2026-05-08 05:00 | 14.50380 | 121.00798 | 82 ft | 14 kts | 240° |
| 2026-05-08 05:00 | 14.50329 | 121.00706 | 82 ft | 15 kts | 240° |
| 2026-05-08 05:00 | 14.50276 | 121.00611 | 82 ft | 15 kts | 240° |
| 2026-05-08 05:01 | 14.50224 | 121.00518 | 82 ft | 15 kts | 240° |
| 2026-05-08 05:01 | 14.50170 | 121.00422 | 82 ft | 15 kts | 240° |
| 2026-05-08 05:01 | 14.50117 | 121.00326 | 82 ft | 15 kts | 240° |
| 2026-05-08 05:01 | 14.50063 | 121.00228 | 82 ft | 15 kts | 240° |
| 2026-05-08 05:02 | 14.50008 | 121.00130 | 82 ft | 15 kts | 240° |
| 2026-05-08 05:02 | 14.49960 | 121.00041 | 82 ft | 11 kts | 240° |
| 2026-05-08 05:02 | 14.49926 | 120.99981 | 82 ft | 5 kts | 240° |
| 2026-05-08 05:02 | 14.49903 | 120.99960 | 82 ft | 4 kts | 194° |
| 2026-05-08 05:03 | 14.49885 | 120.99962 | 82 ft | 0 kts | 154° |
| 2026-05-08 05:05 | 14.49882 | 120.99963 | 82 ft | 1 kts | 154° |
| 2026-05-08 05:05 | 14.49864 | 120.99972 | 82 ft | 6 kts | 153° |
| 2026-05-08 05:05 | 14.49820 | 120.99997 | 82 ft | 6 kts | 144° |
| 2026-05-08 05:05 | 14.49803 | 121.00040 | 82 ft | 7 kts | 83° |
| 2026-05-08 05:06 | 14.49827 | 121.00089 | 82 ft | 8 kts | 60° |
| 2026-05-08 05:06 | 14.49857 | 121.00143 | 82 ft | 10 kts | 60° |
| 2026-05-08 05:06 | 14.49973 | 121.00352 | 82 ft | 69 kts | 60° |
| 2026-05-08 05:06 | 14.50330 | 121.00993 | 83 ft | 135 kts | 60° |
| 2026-05-08 05:07 | 14.50884 | 121.01990 | 276 ft | 172 kts | 62° |
| 2026-05-08 05:07 | 14.51469 | 121.03056 | 918 ft | 173 kts | 62° |
| 2026-05-08 05:07 | 14.52048 | 121.04102 | 1694 ft | 169 kts | 61° |
| 2026-05-08 05:07 | 14.52621 | 121.05131 | 2167 ft | 168 kts | 62° |
| 2026-05-08 05:08 | 14.53219 | 121.06207 | 2414 ft | 180 kts | 62° |
| 2026-05-08 05:08 | 14.53872 | 121.07386 | 2677 ft | 194 kts | 62° |
| 2026-05-08 05:08 | 14.54568 | 121.08639 | 2947 ft | 208 kts | 62° |
| 2026-05-08 05:08 | 14.55287 | 121.10016 | 3142 ft | 228 kts | 70° |
| 2026-05-08 05:09 | 14.55456 | 121.11673 | 3434 ft | 245 kts | 99° |
| 2026-05-08 05:09 | 14.54720 | 121.13294 | 3876 ft | 259 kts | 127° |
| 2026-05-08 05:09 | 14.53465 | 121.14647 | 4567 ft | 263 kts | 133° |
| 2026-05-08 05:09 | 14.52146 | 121.15955 | 5242 ft | 266 kts | 133° |
| 2026-05-08 05:10 | 14.50806 | 121.17276 | 5921 ft | 269 kts | 133° |
| 2026-05-08 05:10 | 14.48092 | 121.19965 | 7317 ft | 275 kts | 133° |
| 2026-05-08 05:10 | 14.46709 | 121.21344 | 7997 ft | 278 kts | 133° |
| 2026-05-08 05:11 | 14.45313 | 121.22739 | 8660 ft | 282 kts | 133° |
| 2026-05-08 05:11 | 14.43908 | 121.24143 | 9310 ft | 284 kts | 133° |
| 2026-05-08 05:11 | 14.42470 | 121.25580 | 9940 ft | 288 kts | 133° |
| 2026-05-08 05:11 | 14.41041 | 121.27010 | 10514 ft | 292 kts | 133° |
| 2026-05-08 05:12 | 14.39566 | 121.28486 | 11079 ft | 296 kts | 134° |
| 2026-05-08 05:12 | 14.38084 | 121.29969 | 11635 ft | 300 kts | 134° |
| 2026-05-08 05:12 | 14.36557 | 121.31497 | 11967 ft | 312 kts | 134° |
| 2026-05-08 05:12 | 14.34961 | 121.33095 | 12213 ft | 326 kts | 134° |
| 2026-05-08 05:13 | 14.33305 | 121.34750 | 12455 ft | 340 kts | 134° |
| 2026-05-08 05:13 | 14.31554 | 121.36500 | 12696 ft | 354 kts | 134° |
| 2026-05-08 05:13 | 14.29757 | 121.38295 | 12922 ft | 367 kts | 134° |
| 2026-05-08 05:13 | 14.27896 | 121.40152 | 13143 ft | 380 kts | 134° |
| 2026-05-08 05:14 | 14.25971 | 121.42076 | 13350 ft | 392 kts | 134° |
| 2026-05-08 05:14 | 14.23974 | 121.44069 | 13552 ft | 403 kts | 134° |
| 2026-05-08 05:14 | 14.21937 | 121.46101 | 13750 ft | 414 kts | 134° |
| 2026-05-08 05:14 | 14.19840 | 121.48193 | 14075 ft | 420 kts | 134° |
| 2026-05-08 05:15 | 14.17730 | 121.50299 | 14511 ft | 422 kts | 134° |
| 2026-05-08 05:15 | 14.15611 | 121.52412 | 14931 ft | 425 kts | 134° |
| 2026-05-08 05:15 | 14.13476 | 121.54539 | 15340 ft | 427 kts | 134° |
| 2026-05-08 05:15 | 14.11355 | 121.56655 | 15731 ft | 430 kts | 134° |
| 2026-05-08 05:16 | 14.09187 | 121.58818 | 16116 ft | 432 kts | 134° |
| 2026-05-08 05:16 | 14.07017 | 121.60981 | 16485 ft | 435 kts | 134° |
| 2026-05-08 05:16 | 14.04853 | 121.63139 | 16850 ft | 437 kts | 134° |
| 2026-05-08 05:16 | 14.02653 | 121.65331 | 17217 ft | 439 kts | 134° |
| 2026-05-08 05:17 | 14.00440 | 121.67535 | 17582 ft | 441 kts | 134° |
| 2026-05-08 05:17 | 13.98224 | 121.69746 | 17951 ft | 443 kts | 134° |
| 2026-05-08 05:17 | 13.96012 | 121.71950 | 18291 ft | 445 kts | 134° |
| 2026-05-08 05:17 | 13.93783 | 121.74171 | 18615 ft | 447 kts | 134° |
| 2026-05-08 05:18 | 13.91545 | 121.76398 | 18933 ft | 450 kts | 134° |
| 2026-05-08 05:18 | 13.89283 | 121.78648 | 19241 ft | 452 kts | 134° |
| 2026-05-08 05:18 | 13.87072 | 121.80917 | 19547 ft | 453 kts | 132° |
| 2026-05-08 05:18 | 13.84926 | 121.83352 | 19860 ft | 455 kts | 129° |
| 2026-05-08 05:19 | 13.82888 | 121.85826 | 20154 ft | 457 kts | 129° |
| 2026-05-08 05:19 | 13.80852 | 121.88318 | 20447 ft | 458 kts | 128° |
| 2026-05-08 05:19 | 13.78782 | 121.90855 | 20748 ft | 459 kts | 129° |
| 2026-05-08 05:19 | 13.76723 | 121.93382 | 21023 ft | 461 kts | 129° |
| 2026-05-08 05:20 | 13.74655 | 121.95917 | 21292 ft | 463 kts | 129° |
| 2026-05-08 05:20 | 13.72582 | 121.98457 | 21556 ft | 464 kts | 129° |
| 2026-05-08 05:20 | 13.70509 | 122.00996 | 21810 ft | 466 kts | 129° |
| 2026-05-08 05:20 | 13.68441 | 122.03527 | 22118 ft | 466 kts | 129° |
| 2026-05-08 05:21 | 13.66388 | 122.06038 | 22882 ft | 454 kts | 129° |
| 2026-05-08 05:21 | 13.64389 | 122.08481 | 23845 ft | 439 kts | 129° |
| 2026-05-08 05:21 | 13.62458 | 122.10841 | 24552 ft | 430 kts | 129° |
| 2026-05-08 05:21 | 13.60527 | 122.13201 | 24955 ft | 430 kts | 129° |
| 2026-05-08 05:22 | 13.58601 | 122.15558 | 25280 ft | 431 kts | 129° |
| 2026-05-08 05:22 | 13.56674 | 122.17912 | 25633 ft | 431 kts | 129° |
| 2026-05-08 05:22 | 13.54746 | 122.20267 | 26032 ft | 431 kts | 129° |
| 2026-05-08 05:22 | 13.52813 | 122.22629 | 26446 ft | 429 kts | 129° |
| 2026-05-08 05:23 | 13.50894 | 122.24974 | 26850 ft | 429 kts | 129° |
| 2026-05-08 05:23 | 13.48986 | 122.27303 | 27260 ft | 427 kts | 129° |
| 2026-05-08 05:23 | 13.47067 | 122.29644 | 27673 ft | 426 kts | 129° |
| 2026-05-08 05:23 | 13.45167 | 122.31961 | 28079 ft | 425 kts | 129° |
| 2026-05-08 05:24 | 13.43269 | 122.34277 | 28488 ft | 424 kts | 129° |
| 2026-05-08 05:24 | 13.41383 | 122.36577 | 28899 ft | 422 kts | 129° |
| 2026-05-08 05:24 | 13.39483 | 122.38895 | 29277 ft | 421 kts | 129° |
| 2026-05-08 05:24 | 13.37612 | 122.41177 | 29601 ft | 421 kts | 130° |
| 2026-05-08 05:25 | 13.35724 | 122.43477 | 29907 ft | 422 kts | 130° |
| 2026-05-08 05:25 | 13.33810 | 122.45809 | 30226 ft | 422 kts | 130° |
| 2026-05-08 05:25 | 13.31938 | 122.48090 | 30546 ft | 422 kts | 130° |
| 2026-05-08 05:25 | 13.30034 | 122.50406 | 30864 ft | 422 kts | 130° |
| 2026-05-08 05:26 | 13.28147 | 122.52703 | 31167 ft | 422 kts | 131° |
| 2026-05-08 05:26 | 13.26264 | 122.54994 | 31475 ft | 422 kts | 131° |
| 2026-05-08 05:26 | 13.24356 | 122.57313 | 31775 ft | 422 kts | 131° |
| 2026-05-08 05:26 | 13.22468 | 122.59610 | 32061 ft | 422 kts | 131° |
| 2026-05-08 05:27 | 13.20575 | 122.61910 | 32347 ft | 422 kts | 131° |
| 2026-05-08 05:27 | 13.18696 | 122.64191 | 32633 ft | 422 kts | 131° |
| 2026-05-08 05:27 | 13.16783 | 122.66516 | 32959 ft | 422 kts | 132° |
| 2026-05-08 05:27 | 13.14902 | 122.68798 | 33294 ft | 421 kts | 132° |
| 2026-05-08 05:28 | 13.13000 | 122.71107 | 33639 ft | 421 kts | 132° |
| 2026-05-08 05:28 | 13.11132 | 122.73373 | 33984 ft | 420 kts | 132° |
| 2026-05-08 05:28 | 13.09240 | 122.75668 | 34331 ft | 420 kts | 132° |
| 2026-05-08 05:28 | 13.07362 | 122.77947 | 34664 ft | 419 kts | 132° |
| 2026-05-08 05:29 | 13.05468 | 122.80245 | 34881 ft | 421 kts | 132° |
| 2026-05-08 05:29 | 13.01641 | 122.84882 | 34887 ft | 435 kts | 132° |
| 2026-05-08 05:30 | 12.97654 | 122.89714 | 34886 ft | 447 kts | 132° |
| 2026-05-08 05:30 | 12.93582 | 122.94644 | 34882 ft | 459 kts | 132° |
| 2026-05-08 05:31 | 12.89411 | 122.99692 | 34882 ft | 470 kts | 132° |
| 2026-05-08 05:31 | 12.85135 | 123.04866 | 34881 ft | 474 kts | 132° |
| 2026-05-08 05:32 | 12.80899 | 123.09989 | 34881 ft | 474 kts | 131° |
| 2026-05-08 05:32 | 12.76622 | 123.15160 | 34885 ft | 474 kts | 131° |
| 2026-05-08 05:33 | 12.72363 | 123.20305 | 34889 ft | 474 kts | 131° |
| 2026-05-08 05:33 | 12.68100 | 123.25452 | 34888 ft | 475 kts | 131° |
| 2026-05-08 05:34 | 12.63838 | 123.30596 | 34885 ft | 475 kts | 131° |
| 2026-05-08 05:34 | 12.59549 | 123.35768 | 34883 ft | 474 kts | 131° |
| 2026-05-08 05:35 | 12.55288 | 123.40904 | 34881 ft | 475 kts | 131° |
| 2026-05-08 05:35 | 12.51022 | 123.46046 | 34884 ft | 475 kts | 131° |
| 2026-05-08 05:36 | 12.46752 | 123.51189 | 34887 ft | 475 kts | 131° |
| 2026-05-08 05:36 | 12.42478 | 123.56338 | 34888 ft | 475 kts | 131° |
| 2026-05-08 05:37 | 12.38191 | 123.61497 | 34889 ft | 475 kts | 131° |
| 2026-05-08 05:37 | 12.33927 | 123.66685 | 34888 ft | 475 kts | 131° |
| 2026-05-08 05:38 | 12.29737 | 123.71866 | 34889 ft | 474 kts | 131° |
| 2026-05-08 05:38 | 12.25516 | 123.77083 | 34889 ft | 474 kts | 131° |
| 2026-05-08 05:39 | 12.21312 | 123.82272 | 34887 ft | 475 kts | 131° |
| 2026-05-08 05:39 | 12.17096 | 123.87472 | 34539 ft | 475 kts | 131° |
| 2026-05-08 05:39 | 12.14996 | 123.90063 | 34112 ft | 472 kts | 131° |
| 2026-05-08 05:40 | 12.12905 | 123.92641 | 33517 ft | 469 kts | 131° |
| 2026-05-08 05:40 | 12.10848 | 123.95177 | 32848 ft | 467 kts | 131° |
| 2026-05-08 05:40 | 12.08762 | 123.97746 | 32191 ft | 467 kts | 131° |
| 2026-05-08 05:40 | 12.06692 | 124.00294 | 31535 ft | 467 kts | 130° |
| 2026-05-08 05:41 | 12.04615 | 124.02848 | 30850 ft | 466 kts | 130° |
| 2026-05-08 05:41 | 12.02573 | 124.05361 | 30153 ft | 466 kts | 130° |
| 2026-05-08 05:41 | 12.00489 | 124.07926 | 29429 ft | 465 kts | 130° |
| 2026-05-08 05:41 | 11.98424 | 124.10466 | 28692 ft | 465 kts | 130° |
| 2026-05-08 05:42 | 11.96373 | 124.12989 | 27908 ft | 465 kts | 130° |
| 2026-05-08 05:42 | 11.94301 | 124.15539 | 27037 ft | 467 kts | 129° |
| 2026-05-08 05:42 | 11.92226 | 124.18092 | 26108 ft | 470 kts | 129° |
| 2026-05-08 05:42 | 11.90143 | 124.20656 | 25142 ft | 472 kts | 129° |
| 2026-05-08 05:43 | 11.88051 | 124.23229 | 24096 ft | 477 kts | 129° |
| 2026-05-08 05:43 | 11.85936 | 124.25828 | 23193 ft | 476 kts | 128° |
| 2026-05-08 05:43 | 11.83826 | 124.28413 | 22522 ft | 471 kts | 128° |
| 2026-05-08 05:43 | 11.81758 | 124.30946 | 21864 ft | 466 kts | 128° |
| 2026-05-08 05:44 | 11.79688 | 124.33481 | 21208 ft | 462 kts | 128° |
| 2026-05-08 05:44 | 11.77641 | 124.35989 | 20564 ft | 457 kts | 128° |
| 2026-05-08 05:44 | 11.75618 | 124.38470 | 19926 ft | 453 kts | 128° |
| 2026-05-08 05:44 | 11.73626 | 124.40913 | 19294 ft | 449 kts | 127° |
| 2026-05-08 05:45 | 11.71622 | 124.43372 | 18656 ft | 445 kts | 127° |
| 2026-05-08 05:45 | 11.69675 | 124.45759 | 18052 ft | 440 kts | 127° |
| 2026-05-08 05:45 | 11.67716 | 124.48160 | 17431 ft | 436 kts | 127° |
| 2026-05-08 05:45 | 11.65784 | 124.50529 | 16804 ft | 432 kts | 127° |
| 2026-05-08 05:46 | 11.63884 | 124.52862 | 16161 ft | 429 kts | 127° |
| 2026-05-08 05:46 | 11.61993 | 124.55183 | 15500 ft | 427 kts | 127° |
| 2026-05-08 05:46 | 11.60109 | 124.57492 | 14841 ft | 424 kts | 127° |
| 2026-05-08 05:46 | 11.58230 | 124.59796 | 14174 ft | 421 kts | 127° |
| 2026-05-08 05:47 | 11.56361 | 124.62086 | 13478 ft | 419 kts | 127° |
| 2026-05-08 05:47 | 11.54489 | 124.64378 | 12791 ft | 416 kts | 127° |
| 2026-05-08 05:47 | 11.52654 | 124.66623 | 12240 ft | 409 kts | 127° |
| 2026-05-08 05:47 | 11.50809 | 124.68772 | 11835 ft | 401 kts | 131° |
| 2026-05-08 05:48 | 11.48779 | 124.70662 | 11456 ft | 393 kts | 138° |
| 2026-05-08 05:48 | 11.46603 | 124.72289 | 11189 ft | 382 kts | 143° |
| 2026-05-08 05:48 | 11.44414 | 124.73810 | 10962 ft | 369 kts | 143° |
| 2026-05-08 05:48 | 11.42327 | 124.75245 | 10735 ft | 358 kts | 143° |
| 2026-05-08 05:49 | 11.40297 | 124.76643 | 10511 ft | 336 kts | 143° |
| 2026-05-08 05:49 | 11.38447 | 124.77920 | 10329 ft | 312 kts | 143° |
| 2026-05-08 05:49 | 11.36701 | 124.79127 | 10178 ft | 293 kts | 142° |
| 2026-05-08 05:49 | 11.35040 | 124.80279 | 10036 ft | 284 kts | 142° |
| 2026-05-08 05:50 | 11.33410 | 124.81413 | 9745 ft | 283 kts | 142° |
| 2026-05-08 05:50 | 11.31772 | 124.82551 | 9379 ft | 284 kts | 142° |
| 2026-05-08 05:50 | 11.30139 | 124.83684 | 9019 ft | 285 kts | 142° |
| 2026-05-08 05:50 | 11.28497 | 124.84823 | 8663 ft | 285 kts | 143° |
| 2026-05-08 05:51 | 11.26823 | 124.85905 | 8399 ft | 283 kts | 150° |
| 2026-05-08 05:51 | 11.24996 | 124.86620 | 8145 ft | 278 kts | 161° |
| 2026-05-08 05:51 | 11.23128 | 124.87066 | 7827 ft | 273 kts | 164° |
| 2026-05-08 05:51 | 11.21264 | 124.87469 | 7497 ft | 273 kts | 164° |
| 2026-05-08 05:52 | 11.19405 | 124.87868 | 7169 ft | 273 kts | 164° |
| 2026-05-08 05:52 | 11.17555 | 124.88271 | 6837 ft | 273 kts | 163° |
| 2026-05-08 05:52 | 11.15695 | 124.88682 | 6508 ft | 273 kts | 163° |
| 2026-05-08 05:52 | 11.13813 | 124.89099 | 6172 ft | 271 kts | 163° |
| 2026-05-08 05:53 | 11.12007 | 124.89499 | 5843 ft | 261 kts | 163° |
| 2026-05-08 05:53 | 11.10262 | 124.89886 | 5526 ft | 251 kts | 163° |
| 2026-05-08 05:53 | 11.08560 | 124.90263 | 5223 ft | 247 kts | 163° |
| 2026-05-08 05:53 | 11.06917 | 124.90628 | 4924 ft | 237 kts | 163° |
| 2026-05-08 05:54 | 11.05356 | 124.91076 | 4605 ft | 225 kts | 147° |
| 2026-05-08 05:54 | 11.04242 | 124.92058 | 4362 ft | 205 kts | 121° |
| 2026-05-08 05:54 | 11.03701 | 124.93319 | 4098 ft | 189 kts | 100° |
| 2026-05-08 05:54 | 11.03573 | 124.94617 | 3821 ft | 181 kts | 92° |
| 2026-05-08 05:55 | 11.03502 | 124.95873 | 3593 ft | 175 kts | 92° |
| 2026-05-08 05:55 | 11.03433 | 124.97128 | 3544 ft | 176 kts | 92° |
| 2026-05-08 05:55 | 11.03360 | 124.98373 | 3502 ft | 176 kts | 92° |
| 2026-05-08 05:55 | 11.03293 | 124.99606 | 3445 ft | 176 kts | 89° |
| 2026-05-08 05:56 | 11.03644 | 125.00784 | 3304 ft | 178 kts | 56° |
| 2026-05-08 05:56 | 11.04655 | 125.01520 | 3148 ft | 186 kts | 23° |
| 2026-05-08 05:56 | 11.05967 | 125.01681 | 3015 ft | 189 kts | 8° |
| 2026-05-08 05:56 | 11.07283 | 125.01761 | 2840 ft | 189 kts | 8° |
| 2026-05-08 05:57 | 11.08605 | 125.01842 | 2571 ft | 188 kts | 8° |
| 2026-05-08 05:57 | 11.09917 | 125.01926 | 2244 ft | 185 kts | 9° |
| 2026-05-08 05:57 | 11.11173 | 125.02005 | 1945 ft | 176 kts | 9° |
| 2026-05-08 05:57 | 11.12364 | 125.02082 | 1715 ft | 166 kts | 9° |
| 2026-05-08 05:58 | 11.13457 | 125.02151 | 1696 ft | 149 kts | 9° |
| 2026-05-08 05:58 | 11.14484 | 125.02220 | 1603 ft | 146 kts | 9° |
| 2026-05-08 05:58 | 11.15483 | 125.02290 | 1301 ft | 142 kts | 9° |
| 2026-05-08 05:58 | 11.16467 | 125.02360 | 1082 ft | 141 kts | 8° |
| 2026-05-08 05:59 | 11.17459 | 125.02428 | 883 ft | 141 kts | 8° |
| 2026-05-08 05:59 | 11.18439 | 125.02500 | 725 ft | 140 kts | 6° |
| 2026-05-08 05:59 | 11.19421 | 125.02547 | 520 ft | 141 kts | 7° |
| 2026-05-08 05:59 | 11.20402 | 125.02611 | 300 ft | 141 kts | 7° |
| 2026-05-08 06:00 | 11.21385 | 125.02680 | 130 ft | 142 kts | 7° |
| 2026-05-08 06:00 | 11.22361 | 125.02746 | 23 ft | 133 kts | 6° |
| 2026-05-08 06:00 | 11.23093 | 125.02798 | 19 ft | 60 kts | 5° |
| 2026-05-08 06:00 | 11.23438 | 125.02820 | 18 ft | 30 kts | 5° |
| 2026-05-08 06:01 | 11.23577 | 125.02830 | 18 ft | 12 kts | 4° |
| 2026-05-08 06:01 | 11.23652 | 125.02823 | 18 ft | 9 kts | 338° |
| 2026-05-08 06:01 | 11.23694 | 125.02813 | 18 ft | 2 kts | 27° |
| 2026-05-08 06:01 | 11.23692 | 125.02830 | 18 ft | 3 kts | 141° |
| 2026-05-08 06:02 | 11.23662 | 125.02834 | 18 ft | 5 kts | 182° |
| 2026-05-08 06:02 | 11.23622 | 125.02833 | 18 ft | 6 kts | 182° |
| 2026-05-08 06:02 | 11.23574 | 125.02829 | 18 ft | 7 kts | 184° |
| 2026-05-08 06:02 | 11.23519 | 125.02825 | 18 ft | 8 kts | 184° |
| 2026-05-08 06:03 | 11.23457 | 125.02821 | 18 ft | 9 kts | 184° |
| 2026-05-08 06:03 | 11.23389 | 125.02817 | 18 ft | 10 kts | 184° |
| 2026-05-08 06:03 | 11.23314 | 125.02812 | 18 ft | 11 kts | 184° |
| 2026-05-08 06:03 | 11.23234 | 125.02807 | 18 ft | 11 kts | 183° |
| 2026-05-08 06:04 | 11.23149 | 125.02801 | 19 ft | 12 kts | 184° |
| 2026-05-08 06:04 | 11.23062 | 125.02795 | 19 ft | 12 kts | 184° |
| 2026-05-08 06:04 | 11.22969 | 125.02788 | 19 ft | 13 kts | 183° |
| 2026-05-08 06:04 | 11.22874 | 125.02782 | 19 ft | 13 kts | 184° |
| 2026-05-08 06:05 | 11.22777 | 125.02776 | 19 ft | 14 kts | 184° |
| 2026-05-08 06:05 | 11.22676 | 125.02769 | 20 ft | 14 kts | 184° |
| 2026-05-08 06:05 | 11.22593 | 125.02763 | 20 ft | 7 kts | 183° |
| 2026-05-08 06:05 | 11.22568 | 125.02757 | 20 ft | 2 kts | 230° |
| 2026-05-08 06:06 | 11.22563 | 125.02731 | 20 ft | 4 kts | 269° |
| 2026-05-08 06:06 | 11.22563 | 125.02692 | 20 ft | 5 kts | 274° |
| 2026-05-08 06:06 | 11.22573 | 125.02663 | 20 ft | 3 kts | 301° |
| 2026-05-08 06:06 | 11.22579 | 125.02654 | 20 ft | 0 kts | 303° |
| 2026-05-08 06:07 | 11.22581 | 125.02651 | 20 ft | 0 kts | 304° |
| 2026-05-08 06:07 | 11.22583 | 125.02648 | 20 ft | 0 kts | 305° |